sensor_id;sensor_type;location;lat;lon;timestamp;temperature;humidity
35305;DHT22;26433;48.034;-1.764;2022-09-13T05:01:58;23.10;73.80
35305;DHT22;26433;48.034;-1.764;2022-09-13T05:07:02;23.10;73.90
35305;DHT22;26433;48.034;-1.764;2022-09-13T05:12:06;23.10;74.60
35305;DHT22;26433;48.034;-1.764;2022-09-13T05:17:11;23.10;74.80
35305;DHT22;26433;48.034;-1.764;2022-09-13T05:22:15;23.10;75.50
35305;DHT22;26433;48.034;-1.764;2022-09-13T05:27:18;23.10;75.10
35305;DHT22;26433;48.034;-1.764;2022-09-13T05:32:23;23.10;75.30
35305;DHT22;26433;48.034;-1.764;2022-09-13T05:37:27;23.10;75.50
35305;DHT22;26433;48.034;-1.764;2022-09-13T05:42:31;23.10;75.70
35305;DHT22;26433;48.034;-1.764;2022-09-13T05:47:36;23.10;75.80
35305;DHT22;26433;48.034;-1.764;2022-09-13T05:52:39;23.00;76.60
35305;DHT22;26433;48.034;-1.764;2022-09-13T05:57:43;23.00;77.00
35305;DHT22;26433;48.034;-1.764;2022-09-13T06:02:48;23.00;77.00
35305;DHT22;26433;48.034;-1.764;2022-09-13T06:07:52;23.00;77.10
35305;DHT22;26433;48.034;-1.764;2022-09-13T06:12:55;23.10;77.40
35305;DHT22;26433;48.034;-1.764;2022-09-13T06:18:00;23.10;77.50
35305;DHT22;26433;48.034;-1.764;2022-09-13T06:23:04;23.10;77.80
35305;DHT22;26433;48.034;-1.764;2022-09-13T06:28:08;23.00;78.00
35305;DHT22;26433;48.034;-1.764;2022-09-13T06:33:13;23.00;78.40
35305;DHT22;26433;48.034;-1.764;2022-09-13T06:38:17;22.90;78.80
35305;DHT22;26433;48.034;-1.764;2022-09-13T06:43:20;23.00;78.90
35305;DHT22;26433;48.034;-1.764;2022-09-13T06:48:26;23.10;78.70
35305;DHT22;26433;48.034;-1.764;2022-09-13T06:53:30;23.20;78.40
35305;DHT22;26433;48.034;-1.764;2022-09-13T06:58:36;23.30;78.20
35305;DHT22;26433;48.034;-1.764;2022-09-13T07:03:43;23.40;78.30
35305;DHT22;26433;48.034;-1.764;2022-09-13T07:08:48;23.40;78.50
35305;DHT22;26433;48.034;-1.764;2022-09-13T07:13:53;23.40;78.50
35305;DHT22;26433;48.034;-1.764;2022-09-13T07:18:59;23.50;78.00
35305;DHT22;26433;48.034;-1.764;2022-09-13T07:24:04;23.70;77.60
35305;DHT22;26433;48.034;-1.764;2022-09-13T07:29:09;23.70;77.20
35305;DHT22;26433;48.034;-1.764;2022-09-13T07:34:16;23.70;77.50
35305;DHT22;26433;48.034;-1.764;2022-09-13T07:39:20;23.80;77.20
35305;DHT22;26433;48.034;-1.764;2022-09-13T07:44:25;23.90;76.80
35305;DHT22;26433;48.034;-1.764;2022-09-13T07:49:30;23.90;76.50
35305;DHT22;26433;48.034;-1.764;2022-09-13T07:54:34;24.10;76.30
35305;DHT22;26433;48.034;-1.764;2022-09-13T07:59:39;24.10;75.90
35305;DHT22;26433;48.034;-1.764;2022-09-13T08:04:44;24.20;75.80
35305;DHT22;26433;48.034;-1.764;2022-09-13T08:09:47;24.30;75.50
35305;DHT22;26433;48.034;-1.764;2022-09-13T08:14:51;24.40;75.10
35305;DHT22;26433;48.034;-1.764;2022-09-13T08:19:56;24.40;74.90
35305;DHT22;26433;48.034;-1.764;2022-09-13T08:25:00;24.50;74.90
35305;DHT22;26433;48.034;-1.764;2022-09-13T08:30:04;24.40;74.70
35305;DHT22;26433;48.034;-1.764;2022-09-13T08:35:09;24.50;74.70
35305;DHT22;26433;48.034;-1.764;2022-09-13T08:40:14;24.50;74.50
35305;DHT22;26433;48.034;-1.764;2022-09-13T08:45:18;24.60;74.30
35305;DHT22;26433;48.034;-1.764;2022-09-13T08:50:29;24.70;74.00
35305;DHT22;26433;48.034;-1.764;2022-09-13T08:55:42;24.90;73.50
35305;DHT22;26433;48.034;-1.764;2022-09-13T09:00:53;25.10;73.00
35305;DHT22;26433;48.034;-1.764;2022-09-13T09:06:02;25.20;72.50
35305;DHT22;26433;48.034;-1.764;2022-09-13T09:11:11;25.40;72.30
35305;DHT22;26433;48.034;-1.764;2022-09-13T09:16:27;25.50;72.10
35305;DHT22;26433;48.034;-1.764;2022-09-13T09:21:36;25.60;72.60
35305;DHT22;26433;48.034;-1.764;2022-09-13T09:26:40;25.70;71.60
35305;DHT22;26433;48.034;-1.764;2022-09-13T09:31:49;25.90;71.40
35305;DHT22;26433;48.034;-1.764;2022-09-13T09:37:00;26.10;70.80
35305;DHT22;26433;48.034;-1.764;2022-09-13T09:42:11;26.30;70.40
35305;DHT22;26433;48.034;-1.764;2022-09-13T09:47:18;26.50;70.00
35305;DHT22;26433;48.034;-1.764;2022-09-13T09:52:34;26.90;69.30
35305;DHT22;26433;48.034;-1.764;2022-09-13T09:57:58;27.30;68.50
35305;DHT22;26433;48.034;-1.764;2022-09-13T10:03:04;27.80;67.10
35305;DHT22;26433;48.034;-1.764;2022-09-13T10:08:25;28.20;66.20
35305;DHT22;26433;48.034;-1.764;2022-09-13T10:13:29;28.60;65.30
35305;DHT22;26433;48.034;-1.764;2022-09-13T10:18:34;28.90;64.80
35305;DHT22;26433;48.034;-1.764;2022-09-13T10:24:15;29.10;64.50
35305;DHT22;26433;48.034;-1.764;2022-09-13T10:29:21;29.10;64.10
35305;DHT22;26433;48.034;-1.764;2022-09-13T10:34:27;29.20;64.00
35305;DHT22;26433;48.034;-1.764;2022-09-13T10:39:35;29.30;63.70
35305;DHT22;26433;48.034;-1.764;2022-09-13T10:44:42;29.50;63.40
35305;DHT22;26433;48.034;-1.764;2022-09-13T10:49:49;29.70;63.00
35305;DHT22;26433;48.034;-1.764;2022-09-13T10:55:01;30.10;62.50
35305;DHT22;26433;48.034;-1.764;2022-09-13T11:00:18;30.20;62.10
35305;DHT22;26433;48.034;-1.764;2022-09-13T11:05:26;30.20;62.10
35305;DHT22;26433;48.034;-1.764;2022-09-13T11:10:40;30.20;62.10
35305;DHT22;26433;48.034;-1.764;2022-09-13T11:15:52;30.10;62.00
35305;DHT22;26433;48.034;-1.764;2022-09-13T11:21:08;30.10;61.90
35305;DHT22;26433;48.034;-1.764;2022-09-13T11:31:56;30.40;61.50
35305;DHT22;26433;48.034;-1.764;2022-09-13T11:37:36;30.50;61.30
35305;DHT22;26433;48.034;-1.764;2022-09-13T11:42:48;30.60;61.00
35305;DHT22;26433;48.034;-1.764;2022-09-13T11:48:14;30.60;60.80
35305;DHT22;26433;48.034;-1.764;2022-09-13T11:53:42;30.50;60.90
35305;DHT22;26433;48.034;-1.764;2022-09-13T11:58:54;30.60;61.00
35305;DHT22;26433;48.034;-1.764;2022-09-13T12:04:01;30.60;60.80
35305;DHT22;26433;48.034;-1.764;2022-09-13T12:09:11;30.50;60.90
35305;DHT22;26433;48.034;-1.764;2022-09-13T12:14:21;30.60;60.90
35305;DHT22;26433;48.034;-1.764;2022-09-13T12:19:28;30.90;60.60
35305;DHT22;26433;48.034;-1.764;2022-09-13T12:24:39;30.80;60.40
35305;DHT22;26433;48.034;-1.764;2022-09-13T12:29:49;30.90;60.30
35305;DHT22;26433;48.034;-1.764;2022-09-13T12:34:57;31.00;60.30
35305;DHT22;26433;48.034;-1.764;2022-09-13T12:45:39;32.30;58.10
35305;DHT22;26433;48.034;-1.764;2022-09-13T12:50:56;32.90;57.30
35305;DHT22;26433;48.034;-1.764;2022-09-13T12:56:08;33.50;56.30
35305;DHT22;26433;48.034;-1.764;2022-09-13T13:01:18;34.20;55.40
35305;DHT22;26433;48.034;-1.764;2022-09-13T13:06:32;34.30;55.20
35305;DHT22;26433;48.034;-1.764;2022-09-13T13:11:43;34.20;55.20
35305;DHT22;26433;48.034;-1.764;2022-09-13T13:16:49;34.30;55.30
35305;DHT22;26433;48.034;-1.764;2022-09-13T13:21:52;34.50;55.20
35305;DHT22;26433;48.034;-1.764;2022-09-13T13:26:57;34.80;54.70
35305;DHT22;26433;48.034;-1.764;2022-09-13T13:32:10;34.90;54.40
35305;DHT22;26433;48.034;-1.764;2022-09-13T13:37:41;34.60;54.70
35305;DHT22;26433;48.034;-1.764;2022-09-13T13:42:45;34.60;54.70
35305;DHT22;26433;48.034;-1.764;2022-09-13T13:47:54;34.80;54.40
35305;DHT22;26433;48.034;-1.764;2022-09-13T13:52:59;34.90;54.10
35305;DHT22;26433;48.034;-1.764;2022-09-13T13:58:42;34.80;54.30
35305;DHT22;26433;48.034;-1.764;2022-09-13T14:04:21;34.60;54.20
35305;DHT22;26433;48.034;-1.764;2022-09-13T14:09:38;34.50;54.20
35305;DHT22;26433;48.034;-1.764;2022-09-13T14:15:04;34.40;54.30
35305;DHT22;26433;48.034;-1.764;2022-09-13T14:20:15;34.50;54.00
35305;DHT22;26433;48.034;-1.764;2022-09-13T14:25:22;35.00;53.60
35305;DHT22;26433;48.034;-1.764;2022-09-13T14:30:31;35.70;52.60
35305;DHT22;26433;48.034;-1.764;2022-09-13T14:35:39;35.50;52.30
35305;DHT22;26433;48.034;-1.764;2022-09-13T14:40:46;35.20;52.70
35305;DHT22;26433;48.034;-1.764;2022-09-13T14:45:55;34.90;53.00
35305;DHT22;26433;48.034;-1.764;2022-09-13T14:51:11;34.40;53.50
35305;DHT22;26433;48.034;-1.764;2022-09-13T14:56:22;33.90;54.10
35305;DHT22;26433;48.034;-1.764;2022-09-13T15:01:31;33.30;54.70
35305;DHT22;26433;48.034;-1.764;2022-09-13T15:06:39;32.80;55.30
35305;DHT22;26433;48.034;-1.764;2022-09-13T15:11:56;32.40;55.90
35305;DHT22;26433;48.034;-1.764;2022-09-13T15:17:06;31.90;56.70
35305;DHT22;26433;48.034;-1.764;2022-09-13T15:22:15;31.60;57.50
35305;DHT22;26433;48.034;-1.764;2022-09-13T15:27:26;31.30;58.00
35305;DHT22;26433;48.034;-1.764;2022-09-13T15:32:32;31.00;58.50
35305;DHT22;26433;48.034;-1.764;2022-09-13T15:37:37;30.70;59.00
35305;DHT22;26433;48.034;-1.764;2022-09-13T15:42:45;30.50;59.60
35305;DHT22;26433;48.034;-1.764;2022-09-13T15:47:50;30.00;60.60
35305;DHT22;26433;48.034;-1.764;2022-09-13T15:52:56;29.30;61.70
35305;DHT22;26433;48.034;-1.764;2022-09-13T15:58:00;28.60;63.40
35305;DHT22;26433;48.034;-1.764;2022-09-13T16:03:04;27.90;65.20
35305;DHT22;26433;48.034;-1.764;2022-09-13T16:08:10;27.30;66.50
35305;DHT22;26433;48.034;-1.764;2022-09-13T16:13:14;26.90;67.30
35305;DHT22;26433;48.034;-1.764;2022-09-13T16:18:18;26.70;67.70
35305;DHT22;26433;48.034;-1.764;2022-09-13T16:23:23;26.60;68.20
35305;DHT22;26433;48.034;-1.764;2022-09-13T16:28:27;26.60;68.40
35305;DHT22;26433;48.034;-1.764;2022-09-13T16:33:30;26.60;68.70
35305;DHT22;26433;48.034;-1.764;2022-09-13T16:38:35;26.60;69.00
35305;DHT22;26433;48.034;-1.764;2022-09-13T16:43:39;26.60;69.30
35305;DHT22;26433;48.034;-1.764;2022-09-13T16:48:43;26.60;69.80
35305;DHT22;26433;48.034;-1.764;2022-09-13T16:53:49;26.50;70.20
35305;DHT22;26433;48.034;-1.764;2022-09-13T16:58:53;26.40;71.00
35305;DHT22;26433;48.034;-1.764;2022-09-13T17:03:57;26.20;71.90
35305;DHT22;26433;48.034;-1.764;2022-09-13T17:09:04;25.90;72.60
35305;DHT22;26433;48.034;-1.764;2022-09-13T17:14:10;25.80;72.80
35305;DHT22;26433;48.034;-1.764;2022-09-13T17:19:19;25.90;72.80
35305;DHT22;26433;48.034;-1.764;2022-09-13T17:24:24;26.00;72.60
35305;DHT22;26433;48.034;-1.764;2022-09-13T17:29:28;26.00;72.40
35305;DHT22;26433;48.034;-1.764;2022-09-13T17:34:32;26.10;72.30
35305;DHT22;26433;48.034;-1.764;2022-09-13T17:39:37;26.10;72.10
35305;DHT22;26433;48.034;-1.764;2022-09-13T17:44:41;26.20;71.90
35305;DHT22;26433;48.034;-1.764;2022-09-13T17:49:44;26.20;72.00
35305;DHT22;26433;48.034;-1.764;2022-09-13T17:54:50;26.20;72.20
35305;DHT22;26433;48.034;-1.764;2022-09-13T17:59:53;26.20;72.40
35305;DHT22;26433;48.034;-1.764;2022-09-13T18:04:57;26.10;72.40
35305;DHT22;26433;48.034;-1.764;2022-09-13T18:10:09;26.10;72.90
35305;DHT22;26433;48.034;-1.764;2022-09-13T18:15:32;26.00;73.60
35305;DHT22;26433;48.034;-1.764;2022-09-13T18:20:36;25.90;74.00
35305;DHT22;26433;48.034;-1.764;2022-09-13T18:25:43;25.80;74.50
35305;DHT22;26433;48.034;-1.764;2022-09-13T18:30:50;25.60;75.40
35305;DHT22;26433;48.034;-1.764;2022-09-13T18:35:58;25.50;75.80
35305;DHT22;26433;48.034;-1.764;2022-09-13T18:41:06;25.50;76.20
35305;DHT22;26433;48.034;-1.764;2022-09-13T18:46:12;25.40;76.60
35305;DHT22;26433;48.034;-1.764;2022-09-13T18:51:17;25.30;77.00
35305;DHT22;26433;48.034;-1.764;2022-09-13T18:56:24;25.20;77.40
35305;DHT22;26433;48.034;-1.764;2022-09-13T19:01:29;25.10;77.90
35305;DHT22;26433;48.034;-1.764;2022-09-13T19:06:35;25.10;78.20
35305;DHT22;26433;48.034;-1.764;2022-09-13T19:11:42;25.00;78.50
35305;DHT22;26433;48.034;-1.764;2022-09-13T19:16:50;24.90;78.90
35305;DHT22;26433;48.034;-1.764;2022-09-13T19:21:53;24.90;79.20
35305;DHT22;26433;48.034;-1.764;2022-09-13T19:27:00;24.80;79.40
35305;DHT22;26433;48.034;-1.764;2022-09-13T19:32:04;24.70;79.30
35305;DHT22;26433;48.034;-1.764;2022-09-13T19:37:08;24.60;79.80
35305;DHT22;26433;48.034;-1.764;2022-09-13T19:42:13;24.40;80.30
35305;DHT22;26433;48.034;-1.764;2022-09-13T19:47:16;24.30;80.90
35305;DHT22;26433;48.034;-1.764;2022-09-13T19:52:40;24.20;81.70
35305;DHT22;26433;48.034;-1.764;2022-09-13T19:57:45;24.20;81.50
35305;DHT22;26433;48.034;-1.764;2022-09-13T20:02:49;24.10;81.70
35305;DHT22;26433;48.034;-1.764;2022-09-13T20:07:52;24.00;82.10
35305;DHT22;26433;48.034;-1.764;2022-09-13T20:12:57;23.90;82.30
35305;DHT22;26433;48.034;-1.764;2022-09-13T20:18:01;23.90;82.80
35305;DHT22;26433;48.034;-1.764;2022-09-13T20:23:04;23.80;82.90
35305;DHT22;26433;48.034;-1.764;2022-09-13T20:28:10;23.80;83.00
35305;DHT22;26433;48.034;-1.764;2022-09-13T20:33:14;23.80;83.20
35305;DHT22;26433;48.034;-1.764;2022-09-13T20:38:18;23.70;83.40
35305;DHT22;26433;48.034;-1.764;2022-09-13T20:43:23;23.60;83.60
35305;DHT22;26433;48.034;-1.764;2022-09-13T20:48:27;23.60;83.80
35305;DHT22;26433;48.034;-1.764;2022-09-13T20:53:31;23.50;84.00
35305;DHT22;26433;48.034;-1.764;2022-09-13T20:58:37;23.50;84.10
35305;DHT22;26433;48.034;-1.764;2022-09-13T21:03:41;23.40;84.30
35305;DHT22;26433;48.034;-1.764;2022-09-13T21:08:45;23.30;84.60
35305;DHT22;26433;48.034;-1.764;2022-09-13T21:13:53;23.30;84.70
35305;DHT22;26433;48.034;-1.764;2022-09-13T21:18:58;23.20;84.50
35305;DHT22;26433;48.034;-1.764;2022-09-13T21:24:03;23.00;84.90
35305;DHT22;26433;48.034;-1.764;2022-09-13T21:29:11;22.90;85.90
35305;DHT22;26433;48.034;-1.764;2022-09-13T21:34:16;22.90;86.70
35305;DHT22;26433;48.034;-1.764;2022-09-13T21:39:20;22.90;86.00
35305;DHT22;26433;48.034;-1.764;2022-09-13T21:44:25;22.90;85.80
35305;DHT22;26433;48.034;-1.764;2022-09-13T21:49:29;22.90;86.00
35305;DHT22;26433;48.034;-1.764;2022-09-13T21:54:33;22.90;86.00
35305;DHT22;26433;48.034;-1.764;2022-09-13T21:59:38;22.90;86.20
35305;DHT22;26433;48.034;-1.764;2022-09-13T22:04:42;22.90;86.30
35305;DHT22;26433;48.034;-1.764;2022-09-13T22:09:45;22.90;86.30
35305;DHT22;26433;48.034;-1.764;2022-09-13T22:14:50;22.90;86.40
35305;DHT22;26433;48.034;-1.764;2022-09-13T22:19:54;22.90;86.50
35305;DHT22;26433;48.034;-1.764;2022-09-13T22:24:57;22.80;86.60
